Buttonwillow, CA

8:05 PM PST on January 29, 2015 (GMT -0800)
Rosedale | Change Station
CLOSE
Current Station
Personal Weather Station
Location: Bakersfield, CA
Elevation: 358 ft
Nearby Weather Stations
Active Advisory: Dense Fog Advisory Active Notice: Public Information Statement

Elev 358 ft 35.39 °N, 119.18 °W | Updated 1 second ago

Partly Cloudy
Partly Cloudy
56.2 °F
Feels Like 56.2 °F
N
0.0
Wind Variable Wind from NW
Gusts 0.0 mph

Today
High -- | Low -- °F
--% Chance of Precip.
Yesterday
High -- | Low -- °F
Precip. -- in
6:59 AM 5:22 PM
Waxing Gibbous, 79% visible
Pressure 30.07 in
Visibility 6.0 miles
Clouds Overcast 2400 ft
Dew Point 51 °F
Humidity 83%
Rainfall 0.00 in
Snow Depth Not available.
UV 0 out of 12
Pollen 6.30 out of 12
Air Quality Not available.
Flu Activity Not available.
METAR KBFL 300354Z 04004KT 6SM HZ OVC024 15/11 A3007 RMK AO2 SLP182 T01500111

More Conditions Fewer Conditions

Pressure 30.07 in
Visibility 6.0 miles
Clouds Overcast 2400 ft
Dew Point 51 °F
Humidity 83%
Rainfall 0.00 in
Snow Depth Not available.
UV 0 out of 12
Pollen 6.30 out of 12
Air Quality Not available.
Flu Activity Not available.
METAR KBFL 300354Z 04004KT 6SM HZ OVC024 15/11 A3007 RMK AO2 SLP182 T01500111

More Conditions Fewer Conditions

10-Day Weather Forecast

Almanac

Astronomy

Jan. 29, 2015 Rise Set
Actual Time
Civil Twilight
Nautical Twilight
Astronomical Twilight
Moon
Length of Visible Light
Length of Day
Tomorrow will be .
, % of the Moon is Illuminated

Today's Extremes

State Highs State Lows

Community

WunderPhotos

Upload Photos

1,791,699 photos uploaded!

WunderBlogs® & News

Nearby

Air Quality

  Air Quality AQ Index Pollutant
Not available.

Snow Depth

Station Depth Elevation

Earthquake Activity

City Distance Mag. Time & Date
Minimum magnitude displayed is 2.5.

Coastal Water Temperatures

Place Temperature

Nearby Weather Stations